KSLG/SLG METAR and TAF weather

Enter ICAO airport designator
Station Type Date Time Source
KSLG METAR 2019/10/21 04:56 UTC NOAA

KSLG 210456Z AUTO 15013G23KT 10SM TSRA OVC100 21/18 A2947 RMK AO2 PK WND 18029/0446 LTG DSNT ALQDS TSB41RAB39 SLP971 P0000 T02110178


Station Type Date Time Source
KSLG Decoded METAR 2019/10/21 04:56 UTC NOAA

Siloam Springs, Smith Field Airport, AR, United States (KSLG) 36-12N 094-29W
Oct 21, 2019 - 12:56 AM EDT / 2019.10.21 0456 UTC
Wind: from the SSE (150 degrees) at 15 MPH (13 KT) gusting to 26 MPH (23 KT):0
Visibility: 10 mile(s):0
Sky conditions: overcast
Weather: rain with thunder; Lightning observed
Precipitation last hour: A trace
Temperature: 70.0 F (21.1 C)
Dew Point: 64.0 F (17.8 C)
Relative Humidity: 81%
Pressure (altimeter): 29.47 in. Hg (997 hPa)
ob: KSLG 210456Z AUTO 15013G23KT 10SM TSRA OVC100 21/18 A2947 RMK AO2 PK WND 18029/0446 LTG DSNT ALQDS TSB41RAB39 SLP971 P0000 T02110178
cycle: 5

Station Type Date Time Source
KSLG TAF UTC NOAA

Error!

Example: see airport list